Time;durP1;ratioP1;P1;durP2;ratioP2;P2;SDS_P1;SDS_P2;PMS_P1;PMS_P2;Temp;Humidity;BMP_temperature;BMP_pressure;BME280_temperature;BME280_humidity;BME280_pressure;Samples;Min_cycle;Max_cycle;Signal;HPM_P1;HPM_P2
2022/12/17 13:07:22;;;;;;;;;66.75;49.50;;;;;1.15;73.67;102528.03;5070991;28;11618;-63
2022/12/17 13:09:52;;;;;;;;;72.33;57.67;;;;;1.23;73.73;102527.59;5072386;28;12328;-62
2022/12/17 13:12:45;;;;;;;;;73.50;53.75;;;;;1.24;73.49;102529.28;5073232;28;11651;-62
2022/12/17 13:15:20;;;;;;;;;64.67;54.00;;;;;1.15;73.18;102524.53;5073247;28;11707;-64
2022/12/17 13:17:58;;;;;;;;;70.50;52.00;;;;;1.17;73.61;102526.13;5067346;28;11665;-64
2022/12/17 13:20:29;;;;;;;;;76.25;61.75;;;;;1.08;73.17;102526.69;5064926;28;11593;-64
2022/12/17 13:23:13;;;;;;;;;70.00;55.00;;;;;1.02;73.21;102516.47;5068571;28;11593;-63
2022/12/17 13:25:40;;;;;;;;;71.00;54.25;;;;;1.05;73.24;102518.06;5087606;28;12637;-64
2022/12/17 13:28:27;;;;;;;;;67.25;56.25;;;;;0.98;73.30;102517.59;5075919;28;11589;-63
2022/12/17 13:31:12;;;;;;;;;69.50;48.75;;;;;1.01;73.48;102516.53;5072994;28;11659;-62
2022/12/17 13:33:51;;;;;;;;;73.50;57.00;;;;;1.02;73.46;102521.78;5073492;28;11698;-64
2022/12/17 13:36:25;;;;;;;;;71.67;57.67;;;;;0.91;73.62;102519.75;5078053;28;12229;-62
2022/12/17 13:39:19;;;;;;;;;65.00;54.25;;;;;0.78;73.85;102518.75;5079615;28;11585;-64
2022/12/17 13:41:50;;;;;;;;;69.33;57.33;;;;;0.78;73.70;102512.63;5089667;28;12360;-63
2022/12/17 13:44:21;;;;;;;;;59.25;49.00;;;;;0.85;74.27;102511.28;5058983;28;11618;-66
2022/12/17 13:46:50;;;;;;;;;60.50;51.00;;;;;0.91;73.97;102518.91;5070405;28;11609;-64
2022/12/17 13:49:25;;;;;;;;;81.00;58.00;;;;;0.90;73.80;102518.03;5078051;28;11561;-65
2022/12/17 13:52:16;;;;;;;;;71.25;57.00;;;;;0.87;74.23;102515.56;5073650;28;12360;-63
2022/12/17 13:54:42;;;;;;;;;67.00;52.00;;;;;0.86;74.35;102513.88;5071821;28;11631;-62
2022/12/17 13:57:13;;;;;;;;;72.00;50.75;;;;;1.03;75.47;102519.97;5060502;28;11633;-64
2022/12/17 13:59:40;;;;;;;;;68.50;51.75;;;;;1.10;75.00;102523.97;5072662;28;11588;-64
2022/12/17 14:02:22;;;;;;;;;70.00;55.67;;;;;0.99;73.79;102530.75;5072097;28;11602;-68
2022/12/17 14:04:54;;;;;;;;;79.00;60.00;;;;;0.87;74.11;102526.16;5071698;28;12361;-65
2022/12/17 14:07:25;;;;;;;;;74.33;54.00;;;;;0.92;74.30;102532.03;5072436;28;11594;-62
2022/12/17 14:09:52;;;;;;;;;76.00;59.33;;;;;1.06;78.42;102530.41;5072251;28;11625;-65
2022/12/17 14:12:24;;;;;;;;;68.00;56.33;;;;;1.06;77.80;102535.72;5072370;28;11608;-63
2022/12/17 14:14:59;;;;;;;;;72.67;56.67;;;;;1.08;75.51;102528.50;5072088;28;11617;-65
2022/12/17 14:17:38;;;;;;;;;70.00;57.33;;;;;0.99;74.90;102524.59;5071811;28;11606;-65
2022/12/17 14:20:13;;;;;;;;;74.00;56.50;;;;;0.99;75.00;102530.75;5072177;28;11586;-62
2022/12/17 14:22:42;;;;;;;;;70.00;58.00;;;;;0.96;74.77;102527.41;5071720;28;11631;-63
2022/12/17 14:25:19;;;;;;;;;71.75;57.25;;;;;0.98;75.24;102533.50;5071213;28;11560;-64
2022/12/17 14:27:54;;;;;;;;;75.00;58.00;;;;;0.92;74.98;102537.34;5071972;28;11592;-64
2022/12/17 14:30:34;;;;;;;;;69.00;52.67;;;;;0.87;74.56;102535.94;5071969;28;12323;-63
2022/12/17 14:33:01;;;;;;;;;65.75;53.25;;;;;0.78;74.73;102537.31;5071787;28;11649;-64
2022/12/17 14:35:34;;;;;;;;;74.75;58.25;;;;;0.67;74.67;102539.72;5071599;28;11582;-63
2022/12/17 14:38:01;;;;;;;;;69.00;53.33;;;;;0.58;74.74;102542.91;5071416;28;12330;-62
2022/12/17 14:40:28;;;;;;;;;63.67;54.33;;;;;0.53;75.26;102545.84;5072022;28;11693;-64
2022/12/17 14:43:00;;;;;;;;;71.00;56.50;;;;;0.53;75.35;102547.59;5071512;28;11571;-62
2022/12/17 14:45:28;;;;;;;;;73.67;57.33;;;;;0.51;75.57;102544.19;5071320;28;11566;-64
2022/12/17 14:47:59;;;;;;;;;54.00;44.50;;;;;0.57;75.59;102549.13;5071370;28;11583;-64
2022/12/17 14:50:35;;;;;;;;;70.67;57.00;;;;;0.55;75.46;102551.88;5071532;28;11591;-63
2022/12/17 14:53:22;;;;;;;;;69.75;51.75;;;;;0.61;75.10;102555.97;5071427;28;12318;-64
2022/12/17 14:55:54;;;;;;;;;71.67;54.33;;;;;0.55;75.33;102557.19;5070478;28;12290;-66
2022/12/17 14:58:24;;;;;;;;;66.00;52.00;;;;;0.52;75.35;102553.84;5071301;28;11580;-63
2022/12/17 15:01:05;;;;;;;;;69.67;55.00;;;;;0.54;75.26;102557.28;5071315;28;11595;-66
2022/12/17 15:03:37;;;;;;;;;68.00;52.50;;;;;0.55;75.38;102561.63;5071222;28;11550;-65
2022/12/17 15:06:06;;;;;;;;;59.00;48.25;;;;;0.51;75.63;102560.09;5071219;28;11615;-59
2022/12/17 15:08:38;;;;;;;;;67.75;53.50;;;;;0.47;75.46;102570.84;5070534;28;11604;-65
2022/12/17 15:11:05;;;;;;;;;72.00;53.50;;;;;0.38;75.58;102566.09;5070050;28;11603;-61
2022/12/17 15:13:31;;;;;;;;;73.00;53.67;;;;;0.36;75.71;102564.44;5071062;28;11598;-63
2022/12/17 15:15:58;;;;;;;;;54.50;48.25;;;;;0.41;75.67;102575.66;5071182;28;11719;-63
2022/12/17 15:18:24;;;;;;;;;70.75;52.50;;;;;0.44;75.51;102580.78;5070991;28;11569;-62
2022/12/17 15:20:51;;;;;;;;;75.00;58.00;;;;;0.40;75.52;102576.56;5071074;28;11562;-62
2022/12/17 15:23:20;;;;;;;;;70.00;50.50;;;;;0.36;75.62;102583.00;5070756;28;11647;-62
2022/12/17 15:25:48;;;;;;;;;73.00;56.33;;;;;0.38;76.05;102592.56;5070921;28;11629;-64
2022/12/17 15:28:16;;;;;;;;;67.00;52.00;;;;;0.35;75.50;102594.53;5070119;28;11601;-64
2022/12/17 15:30:43;;;;;;;;;69.67;52.00;;;;;0.29;76.03;102592.25;5070921;28;11590;-64
2022/12/17 15:33:11;;;;;;;;;69.67;50.00;;;;;0.27;76.05;102594.09;5069803;28;11569;-63
2022/12/17 15:35:37;;;;;;;;;72.33;56.33;;;;;0.23;75.54;102601.34;5070775;28;12319;-63
2022/12/17 15:38:05;;;;;;;;;60.50;49.25;;;;;0.24;75.88;102606.59;5070714;28;11582;-63
2022/12/17 15:40:32;;;;;;;;;71.33;59.33;;;;;0.24;76.29;102603.06;5071297;28;11556;-66
2022/12/17 15:43:10;;;;;;;;;87.00;66.00;;;;;1.13;86.11;102611.28;5070471;28;11639;-66
2022/12/17 15:45:42;;;;;;;;;83.67;63.00;;;;;1.20;80.43;102612.66;5070463;28;8953;-67
2022/12/17 15:48:10;;;;;;;;;71.33;56.33;;;;;0.98;77.17;102607.75;5069892;28;8918;-66
2022/12/17 15:50:38;;;;;;;;;72.33;57.67;;;;;0.74;76.35;102610.00;5070524;28;11565;-66
2022/12/17 15:53:04;;;;;;;;;60.75;48.00;;;;;0.57;76.43;102612.72;5070093;28;11581;-64
2022/12/17 15:55:31;;;;;;;;;62.25;51.50;;;;;0.42;76.29;102611.81;5070227;28;11612;-67
2022/12/17 15:57:57;;;;;;;;;57.50;49.00;;;;;0.33;76.34;102612.31;5070117;28;11579;-65
2022/12/17 16:00:24;;;;;;;;;59.25;49.00;;;;;0.29;76.38;102602.84;5070391;28;11616;-65
2022/12/17 16:02:50;;;;;;;;;55.25;44.75;;;;;0.30;76.14;102605.38;5070077;28;11613;-67
2022/12/17 16:05:18;;;;;;;;;51.75;43.00;;;;;0.31;76.10;102611.53;5069149;28;11575;-67
2022/12/17 16:07:47;;;;;;;;;51.25;41.00;;;;;0.30;76.27;102607.19;5070091;28;11574;-64
2022/12/17 16:10:14;;;;;;;;;61.00;45.50;;;;;0.26;76.17;102598.53;5070323;28;11710;-65
2022/12/17 16:12:40;;;;;;;;;69.00;49.50;;;;;0.26;76.32;102606.50;5069652;28;11606;-65
2022/12/17 16:15:08;;;;;;;;;73.67;52.00;;;;;0.21;76.59;102627.09;5070023;28;11595;-68
2022/12/17 16:17:35;;;;;;;;;77.33;60.00;;;;;0.17;75.99;102622.88;5069855;28;12392;-63
2022/12/17 16:20:03;;;;;;;;;62.67;49.00;;;;;0.15;76.56;102619.44;5069527;28;8834;-64
2022/12/17 16:22:29;;;;;;;;;61.67;49.00;;;;;0.13;76.49;102618.69;5067948;28;11658;-65
2022/12/17 16:24:56;;;;;;;;;63.00;49.00;;;;;0.08;76.83;102626.00;5069740;28;11614;-66
2022/12/17 16:27:22;;;;;;;;;41.25;38.75;;;;;0.09;76.92;102623.31;5069812;28;11579;-65
2022/12/17 16:29:49;;;;;;;;;71.67;50.33;;;;;-0.05;76.32;102620.53;5070039;28;11729;-66
2022/12/17 16:32:16;;;;;;;;;64.67;49.67;;;;;-0.18;76.52;102628.25;5069431;28;11613;-66
2022/12/17 16:34:43;;;;;;;;;60.25;50.25;;;;;-0.28;76.97;102624.41;5069539;28;11581;-64
2022/12/17 16:37:09;;;;;;;;;71.50;47.75;;;;;-0.27;77.49;102626.09;5069334;28;11587;-65
2022/12/17 16:39:36;;;;;;;;;62.00;46.67;;;;;-0.30;77.41;102628.91;5071785;28;11615;-64
2022/12/17 16:42:03;;;;;;;;;62.50;49.25;;;;;-0.30;77.33;102634.19;5073844;28;11578;-65
2022/12/17 16:44:29;;;;;;;;;58.25;48.75;;;;;-0.29;77.47;102630.59;5073897;28;11599;-65
2022/12/17 16:46:56;;;;;;;;;56.50;44.75;;;;;-0.26;77.73;102626.00;5073760;28;11710;-63
2022/12/17 16:49:25;;;;;;;;;64.25;48.25;;;;;-0.31;77.33;102629.84;5073442;28;11612;-65
2022/12/17 16:51:52;;;;;;;;;60.25;47.25;;;;;-0.42;77.39;102624.25;5074803;28;11577;-65
2022/12/17 16:54:23;;;;;;;;;68.67;50.67;;;;;-0.40;78.16;102625.88;5074355;28;11574;-65
2022/12/17 16:56:49;;;;;;;;;53.00;45.75;;;;;-0.34;77.47;102617.63;5075099;28;11685;-65
2022/12/17 16:59:16;;;;;;;;;56.25;48.00;;;;;-0.25;77.76;102624.22;5074107;28;11592;-64
2022/12/17 17:01:45;;;;;;;;;60.00;44.25;;;;;-0.18;77.79;102635.34;5073816;28;11594;-66
2022/12/17 17:04:14;;;;;;;;;53.00;43.25;;;;;-0.19;77.39;102636.28;5073055;28;11619;-65
2022/12/17 17:06:46;;;;;;;;;51.50;41.75;;;;;-0.26;77.29;102635.75;5073804;28;11627;-65
2022/12/17 17:09:14;;;;;;;;;48.50;43.75;;;;;-0.34;77.37;102637.94;5073763;28;11576;-65
2022/12/17 17:11:41;;;;;;;;;63.67;47.67;;;;;-0.39;77.39;102632.88;5073289;28;11599;-64
2022/12/17 17:14:13;;;;;;;;;66.67;51.00;;;;;-0.21;80.05;102627.56;5064466;28;11636;-65
2022/12/17 17:16:40;;;;;;;;;59.33;48.00;;;;;-0.25;78.87;102633.00;5070048;28;11636;-65
2022/12/17 17:19:06;;;;;;;;;66.75;46.25;;;;;-0.09;79.65;102643.66;5067803;28;11624;-67
2022/12/17 17:21:39;;;;;;;;;58.25;46.25;;;;;-0.07;78.46;102639.16;5072385;28;11684;-66
2022/12/17 17:24:16;;;;;;;;;54.75;43.25;;;;;-0.07;77.67;102643.59;5072462;28;11581;-67
2022/12/17 17:26:48;;;;;;;;;61.00;48.75;;;;;-0.09;77.25;102642.78;5067960;28;11619;-63
2022/12/17 17:29:14;;;;;;;;;66.00;46.75;;;;;-0.13;77.56;102643.88;5054963;28;11618;-65
2022/12/17 17:31:41;;;;;;;;;63.00;43.75;;;;;-0.20;77.54;102653.09;5055915;28;12397;-65
2022/12/17 17:34:27;;;;;;;;;64.75;48.75;;;;;-0.35;77.04;102647.66;5061902;28;12356;-66
2022/12/17 17:36:54;;;;;;;;;63.25;45.75;;;;;-0.33;77.40;102655.50;5068226;28;11683;-65
2022/12/17 17:39:20;;;;;;;;;50.00;45.33;;;;;-0.31;77.67;102651.88;5067772;28;11628;-65
2022/12/17 17:41:46;;;;;;;;;71.25;53.50;;;;;-0.31;76.84;102659.81;5066090;28;11697;-67
2022/12/17 17:44:13;;;;;;;;;61.00;48.00;;;;;-0.27;77.32;102657.84;5068465;28;11630;-66
2022/12/17 17:46:40;;;;;;;;;59.67;48.67;;;;;-0.37;77.32;102653.97;5065470;28;11601;-65
2022/12/17 17:49:08;;;;;;;;;51.00;45.50;;;;;-0.42;77.19;102654.19;5072216;28;11593;-66
2022/12/17 17:51:37;;;;;;;;;52.25;45.00;;;;;-0.45;77.46;102654.34;5055035;28;11696;-67
2022/12/17 17:54:24;;;;;;;;;53.25;48.00;;;;;-0.52;77.53;102659.13;5071557;28;11601;-64
2022/12/17 17:56:50;;;;;;;;;53.00;45.00;;;;;-0.47;77.25;102660.66;5072669;28;11641;-66
2022/12/17 17:59:18;;;;;;;;;62.00;48.50;;;;;-0.52;77.50;102660.91;5071843;28;11568;-66
2022/12/17 18:01:48;;;;;;;;;51.33;42.67;;;;;-0.50;77.28;102661.66;5067926;28;11600;-66
2022/12/17 18:04:18;;;;;;;;;55.75;38.25;;;;;-0.46;77.40;102663.22;5068487;28;11592;-65
2022/12/17 18:06:47;;;;;;;;;59.25;44.00;;;;;-0.51;77.27;102657.31;5070625;28;11586;-65
2022/12/17 18:09:33;;;;;;;;;57.50;42.00;;;;;-0.48;77.85;102664.25;5071557;28;11586;-66
2022/12/17 18:13:53;;;;;;;;;47.25;45.00;;;;;-0.44;77.62;102666.66;5067247;28;11621;-64
2022/12/17 18:14:48;;;;;;;;;51.25;44.00;;;;;-0.43;77.45;102668.38;5070122;28;11600;-66
2022/12/17 18:17:34;;;;;;;;;60.67;50.00;;;;;-0.42;77.41;102669.22;5069003;28;11544;-68
2022/12/17 18:20:01;;;;;;;;;58.25;49.00;;;;;-0.46;77.24;102670.31;5070754;28;11719;-65
2022/12/17 18:22:27;;;;;;;;;46.75;38.75;;;;;-0.42;76.68;102672.72;5072036;28;12341;-66
2022/12/17 18:24:54;;;;;;;;;61.75;46.25;;;;;-0.41;77.17;102670.91;5072115;28;11585;-65
2022/12/17 18:27:20;;;;;;;;;61.67;48.67;;;;;-0.56;76.93;102672.56;5066711;28;12311;-65
2022/12/17 18:29:46;;;;;;;;;59.50;43.25;;;;;-0.53;77.42;102664.47;5067853;28;12389;-66
2022/12/17 18:32:13;;;;;;;;;57.25;43.00;;;;;-0.51;76.80;102666.09;5068675;28;11588;-66
2022/12/17 18:34:39;;;;;;;;;45.25;42.50;;;;;-0.53;76.54;102657.41;5071110;28;11577;-66
2022/12/17 18:37:06;;;;;;;;;56.75;46.00;;;;;-0.54;76.77;102653.03;5066481;28;11671;-66
2022/12/17 18:39:32;;;;;;;;;61.25;39.50;;;;;-0.53;76.78;102657.41;5071498;28;11617;-68
2022/12/17 18:44:43;;;;;;;;;46.25;41.75;;;;;-0.64;77.03;102661.53;5058406;28;11626;-66
2022/12/17 18:47:10;;;;;;;;;50.00;42.25;;;;;-0.70;77.05;102660.03;5066737;28;12291;-66
2022/12/17 18:49:37;;;;;;;;;51.00;44.75;;;;;-0.69;77.15;102660.88;5069046;28;11740;-66
2022/12/17 18:52:04;;;;;;;;;47.50;39.50;;;;;-0.44;82.62;102673.75;5068663;28;12454;-68
2022/12/17 18:54:31;;;;;;;;;68.00;49.67;;;;;-0.31;79.71;102678.31;5079493;28;11636;-66
2022/12/17 18:56:58;;;;;;;;;69.25;49.00;;;;;-0.51;77.38;102683.78;5051714;28;8843;-65
2022/12/17 18:59:29;;;;;;;;;59.00;45.75;;;;;-0.64;77.80;102680.88;5086432;28;11682;-65
2022/12/17 19:01:55;;;;;;;;;56.50;45.25;;;;;-0.64;77.20;102685.31;5076748;28;11579;-65
2022/12/17 19:04:24;;;;;;;;;45.00;40.50;;;;;-0.70;77.32;102681.19;5070156;28;11581;-65
2022/12/17 19:06:52;;;;;;;;;56.75;47.00;;;;;-0.77;77.32;102691.22;5072048;28;11764;-65
2022/12/17 19:09:23;;;;;;;;;48.50;39.75;;;;;-0.80;77.09;102687.88;5067816;28;11582;-66
2022/12/17 19:11:50;;;;;;;;;42.50;38.00;;;;;-0.77;77.32;102687.69;5071089;28;11677;-66
2022/12/17 19:14:16;;;;;;;;;63.33;52.00;;;;;-0.80;76.83;102699.28;5076129;28;12302;-66
2022/12/17 19:16:43;;;;;;;;;62.00;47.00;;;;;-0.81;77.28;102694.94;5089800;28;8849;-66
2022/12/17 19:19:12;;;;;;;;;55.50;42.75;;;;;-0.77;77.06;102690.34;5071996;28;11570;-66
2022/12/17 19:21:39;;;;;;;;;56.50;47.00;;;;;-0.76;76.91;102692.06;5090177;28;11594;-66
2022/12/17 19:24:07;;;;;;;;;57.33;48.33;;;;;-0.90;76.91;102698.00;5071349;28;11754;-66
2022/12/17 19:26:35;;;;;;;;;53.33;42.00;;;;;-0.90;77.48;102689.22;5076908;28;11655;-66
2022/12/17 19:29:01;;;;;;;;;58.00;45.67;;;;;-0.89;77.53;102691.81;5068644;28;11582;-66
2022/12/17 19:31:29;;;;;;;;;51.75;38.75;;;;;-0.88;77.41;102697.97;5076855;28;11676;-66
2022/12/17 19:33:59;;;;;;;;;54.25;45.75;;;;;-0.87;77.13;102705.81;5074599;28;11590;-66
2022/12/17 19:36:28;;;;;;;;;57.00;49.67;;;;;-0.95;77.05;102699.19;5079870;28;11686;-66
2022/12/17 19:39:00;;;;;;;;;49.33;44.33;;;;;-1.07;77.62;102696.19;5071240;28;11594;-65
2022/12/17 19:41:27;;;;;;;;;49.25;38.50;;;;;-1.06;77.68;102697.91;5090996;28;11572;-66
2022/12/17 19:43:56;;;;;;;;;51.67;42.67;;;;;-1.03;78.07;102703.03;5074199;28;11613;-66
2022/12/17 19:46:23;;;;;;;;;53.33;45.67;;;;;-1.01;77.41;102703.84;5081318;28;11561;-64
2022/12/17 19:48:50;;;;;;;;;54.33;39.67;;;;;-1.00;78.06;102713.47;5066091;28;9545;-65
2022/12/17 19:51:22;;;;;;;;;63.67;47.00;;;;;-0.89;77.81;102701.50;5088211;28;11576;-66
2022/12/17 19:53:49;;;;;;;;;51.33;43.00;;;;;-0.85;78.00;102711.00;5075844;28;11657;-65
2022/12/17 19:56:19;;;;;;;;;50.33;46.00;;;;;-0.88;77.63;102706.75;5090317;28;12288;-67
2022/12/17 19:58:53;;;;;;;;;49.67;46.00;;;;;-0.92;77.12;102707.81;5070070;28;12284;-67
2022/12/17 20:01:29;;;;;;;;;65.33;51.67;;;;;-0.96;77.07;102708.06;5070522;28;11624;-66
2022/12/17 20:03:56;;;;;;;;;70.67;46.00;;;;;-0.96;77.88;102710.69;5069444;28;11665;-67
2022/12/17 20:06:26;;;;;;;;;63.33;49.00;;;;;-1.00;77.51;102713.47;5071602;28;8830;-67
2022/12/17 20:08:53;;;;;;;;;52.33;44.33;;;;;-1.07;78.07;102714.69;5066954;28;11593;-67
2022/12/17 20:11:32;;;;;;;;;62.75;42.75;;;;;-1.05;77.99;102712.00;5090379;28;11599;-66
2022/12/17 20:14:09;;;;;;;;;51.00;39.50;;;;;-1.06;77.92;102711.09;5070333;28;11626;-66
2022/12/17 20:16:47;;;;;;;;;54.00;46.00;;;;;-1.02;77.63;102717.97;5067683;28;11597;-67
2022/12/17 20:19:19;;;;;;;;;64.33;47.67;;;;;-0.99;77.96;102722.25;5069762;28;11575;-66
2022/12/17 20:21:46;;;;;;;;;58.33;49.33;;;;;-1.01;77.73;102719.69;5063527;28;11728;-67
2022/12/17 20:24:14;;;;;;;;;52.67;47.33;;;;;-0.97;77.98;102715.13;5058304;28;8845;-66
2022/12/17 20:26:41;;;;;;;;;48.67;42.67;;;;;-0.93;77.72;102718.44;5070021;28;11572;-66
2022/12/17 20:29:08;;;;;;;;;55.67;48.33;;;;;-0.91;77.86;102720.09;5085981;28;11584;-65
2022/12/17 20:31:35;;;;;;;;;56.67;42.67;;;;;-0.90;77.21;102726.25;5089904;28;11576;-66
2022/12/17 20:34:04;;;;;;;;;54.67;48.00;;;;;-0.92;77.35;102728.13;5066519;28;11663;-66
2022/12/17 20:36:31;;;;;;;;;54.67;45.00;;;;;-0.91;77.88;102732.47;5058074;28;11572;-65
2022/12/17 20:38:58;;;;;;;;;60.00;46.67;;;;;-0.91;77.26;102735.13;5068316;28;11622;-65
2022/12/17 20:41:27;;;;;;;;;47.67;45.00;;;;;-0.92;77.71;102736.91;5072297;28;11609;-64
2022/12/17 20:43:55;;;;;;;;;63.00;49.33;;;;;-0.92;77.74;102739.53;5040040;28;11621;-66
2022/12/17 20:46:23;;;;;;;;;52.00;40.67;;;;;-0.96;77.06;102740.63;5057595;28;11553;-67
2022/12/17 20:48:50;;;;;;;;;54.67;45.33;;;;;-1.10;76.81;102751.81;5086546;28;11572;-67
2022/12/17 20:51:23;;;;;;;;;57.67;45.00;;;;;-1.15;77.88;102747.69;5054105;28;11603;-65
2022/12/17 20:53:51;;;;;;;;;66.67;49.67;;;;;-1.19;77.70;102752.25;5080503;28;11692;-65
2022/12/17 20:56:21;;;;;;;;;45.25;37.25;;;;;-1.10;78.05;102743.03;5090017;28;8813;-65
2022/12/17 20:58:52;;;;;;;;;53.33;45.00;;;;;-1.03;77.87;102737.41;5076591;28;11634;-66
2022/12/17 21:01:21;;;;;;;;;53.25;40.50;;;;;-0.98;77.71;102736.31;5075329;28;11631;-64
2022/12/17 21:03:50;;;;;;;;;54.75;43.50;;;;;-0.93;77.86;102736.94;5072964;28;11721;-66
2022/12/17 21:06:19;;;;;;;;;51.67;45.00;;;;;-0.93;77.17;102732.56;5072768;28;11584;-64
2022/12/17 21:08:47;;;;;;;;;60.00;47.33;;;;;-0.93;77.09;102739.59;5072726;28;12302;-64
2022/12/17 21:11:18;;;;;;;;;51.50;42.50;;;;;-0.97;77.31;102738.91;5091224;28;12366;-65
2022/12/17 21:13:44;;;;;;;;;64.00;49.67;;;;;-1.05;76.84;102736.63;5073967;28;11611;-66
2022/12/17 21:16:17;;;;;;;;;56.00;41.75;;;;;-1.03;76.80;102736.53;5066894;28;8844;-65
2022/12/17 21:18:44;;;;;;;;;59.00;49.33;;;;;-1.09;76.88;102735.06;5067331;28;11552;-67
2022/12/17 21:21:18;;;;;;;;;46.50;41.25;;;;;-1.12;77.20;102743.13;5068106;28;12284;-65
2022/12/17 21:23:46;;;;;;;;;52.75;40.50;;;;;-1.06;77.13;102748.09;5069283;28;11569;-65
2022/12/17 21:26:33;;;;;;;;;60.00;43.75;;;;;-1.03;76.81;102747.13;5070425;28;11554;-66
2022/12/17 21:29:02;;;;;;;;;55.67;48.33;;;;;-1.04;76.87;102745.41;5073246;28;11590;-65
2022/12/17 21:31:31;;;;;;;;;58.00;48.67;;;;;-1.05;76.42;102749.00;5064991;28;11742;-66
2022/12/17 21:34:01;;;;;;;;;64.00;48.67;;;;;-1.07;76.79;102759.63;5073035;28;11669;-66
2022/12/17 21:36:30;;;;;;;;;59.33;47.00;;;;;-1.12;77.18;102760.78;5069807;28;11580;-65
2022/12/17 21:38:57;;;;;;;;;49.75;36.25;;;;;-1.14;77.06;102766.09;5072322;28;11577;-65
2022/12/17 21:41:26;;;;;;;;;52.67;46.00;;;;;-1.31;76.72;102773.97;5075189;28;11612;-64
2022/12/17 21:43:58;;;;;;;;;59.67;46.67;;;;;-1.37;77.30;102777.75;5056094;28;11609;-65
2022/12/17 21:46:26;;;;;;;;;52.67;46.00;;;;;-1.37;77.72;102777.75;5074259;28;12300;-66
2022/12/17 21:48:53;;;;;;;;;66.33;52.67;;;;;-1.37;77.67;102776.91;5072981;28;8813;-67
2022/12/17 21:51:20;;;;;;;;;54.67;48.00;;;;;-1.37;77.68;102790.97;5055143;28;8955;-64
2022/12/17 21:53:51;;;;;;;;;66.67;50.33;;;;;-1.37;77.87;102776.91;5072564;28;12331;-67
2022/12/17 21:56:18;;;;;;;;;69.00;52.67;;;;;-1.33;77.88;102774.03;5071489;28;8821;-68
2022/12/17 21:58:46;;;;;;;;;53.00;45.33;;;;;-1.28;77.60;102781.75;5070451;28;8828;-66
2022/12/17 22:01:18;;;;;;;;;48.33;44.33;;;;;-1.28;77.27;102789.69;5072658;28;11568;-65
2022/12/17 22:03:47;;;;;;;;;41.75;35.50;;;;;-1.19;77.56;102798.97;5072183;28;11624;-65
2022/12/17 22:06:22;;;;;;;;;62.33;46.00;;;;;-1.19;76.88;102794.53;5076833;28;11593;-67
2022/12/17 22:08:53;;;;;;;;;52.75;39.00;;;;;-1.17;76.94;102797.13;5073975;28;8828;-64
2022/12/17 22:11:25;;;;;;;;;58.33;45.00;;;;;-1.26;77.12;102788.69;5075739;28;11707;-66
2022/12/17 22:14:01;;;;;;;;;67.33;49.33;;;;;-1.28;76.72;102782.59;5072211;28;8863;-66
2022/12/17 22:16:45;;;;;;;;;47.33;44.00;;;;;-1.28;77.04;102782.59;5066349;28;11606;-67
2022/12/17 22:19:18;;;;;;;;;51.00;46.00;;;;;-1.31;76.81;102790.66;5067766;28;11599;-66
2022/12/17 22:21:49;;;;;;;;;62.00;42.75;;;;;-1.27;76.68;102788.75;5052142;28;8816;-68
2022/12/17 22:24:21;;;;;;;;;49.00;45.67;;;;;-1.21;76.48;102785.84;5084364;28;11604;-66
2022/12/17 22:26:47;;;;;;;;;59.33;48.00;;;;;-1.25;76.59;102784.28;5086622;28;11644;-66
2022/12/17 22:34:46;;;;;;;;;39.33;36.00;;;;;-1.18;76.78;102783.03;5069838;28;11610;-65
2022/12/17 22:37:32;;;;;;;;;70.67;52.67;;;;;-1.19;76.69;102777.84;5069919;28;11605;-66
2022/12/17 22:40:20;;;;;;;;;63.00;48.00;;;;;-1.26;76.79;102777.25;5070160;28;8828;-66
2022/12/17 22:46:14;;;;;;;;;67.00;46.33;;;;;-1.27;76.43;102794.88;5068602;28;11672;-65
2022/12/17 22:48:41;;;;;;;;;66.00;49.00;;;;;-1.28;76.85;102797.59;5070253;28;11571;-65
2022/12/17 22:51:08;;;;;;;;;63.33;47.33;;;;;-1.33;76.27;102802.25;5071368;28;8905;-66
2022/12/17 22:53:40;;;;;;;;;65.00;48.33;;;;;-1.35;76.72;102799.66;5062935;28;11566;-65
2022/12/17 22:56:08;;;;;;;;;49.33;44.33;;;;;-1.40;76.98;102795.53;5064317;28;11734;-65
2022/12/17 22:58:55;;;;;;;;;58.00;46.00;;;;;-1.38;76.66;102797.16;5068630;28;8840;-65
2022/12/17 23:01:22;;;;;;;;;60.00;48.67;;;;;-1.23;77.86;102798.25;5064212;28;11569;-63
2022/12/17 23:03:52;;;;;;;;;54.67;48.67;;;;;-1.15;77.57;102797.91;5060733;28;11612;-65
2022/12/17 23:06:19;;;;;;;;;62.00;45.67;;;;;-1.18;76.92;102804.16;5071086;28;11570;-66
2022/12/17 23:08:46;;;;;;;;;49.67;42.67;;;;;-1.19;76.81;102806.91;5068117;28;11588;-66
2022/12/17 23:11:16;;;;;;;;;51.33;45.00;;;;;-1.27;77.06;102818.66;5060118;28;11587;-68
2022/12/17 23:13:43;;;;;;;;;52.00;39.33;;;;;-1.31;77.00;102810.94;5059129;28;11597;-64
2022/12/17 23:16:12;;;;;;;;;56.67;45.00;;;;;-1.26;77.12;102807.19;5056106;28;11699;-64
2022/12/17 23:18:40;;;;;;;;;59.33;48.00;;;;;-1.27;76.47;102801.97;5055560;28;11657;-66
2022/12/17 23:21:11;;;;;;;;;63.00;45.00;;;;;-1.38;76.20;102804.22;5063821;28;8852;-64
2022/12/17 23:23:38;;;;;;;;;52.00;40.50;;;;;-1.42;76.91;102803.50;5064783;28;12301;-66
2022/12/17 23:26:10;;;;;;;;;42.25;39.50;;;;;-1.42;77.22;102803.50;5061762;28;11647;-65
2022/12/17 23:28:37;;;;;;;;;62.00;48.33;;;;;-1.44;76.55;102801.88;5057806;28;11590;-64
2022/12/17 23:31:08;;;;;;;;;65.67;49.00;;;;;-1.45;76.78;102793.09;5065460;28;9475;-65
2022/12/17 23:33:36;;;;;;;;;57.67;45.67;;;;;-1.44;76.71;102797.44;5057982;28;8878;-64
2022/12/17 23:36:08;;;;;;;;;47.67;42.67;;;;;-1.52;76.94;102786.34;5061131;28;12308;-63
2022/12/17 23:38:35;;;;;;;;;48.00;42.67;;;;;-1.48;77.01;102787.09;5055875;28;11628;-65
2022/12/17 23:41:08;;;;;;;;;57.33;48.00;;;;;-1.44;77.08;102783.38;5066896;28;11564;-64
2022/12/17 23:43:35;;;;;;;;;68.67;49.33;;;;;-1.46;76.86;102794.00;5064015;28;11609;-65
2022/12/17 23:46:03;;;;;;;;;61.33;48.33;;;;;-1.50;76.62;102789.78;5070224;28;8832;-65
2022/12/17 23:48:33;;;;;;;;;40.67;32.00;;;;;-1.45;76.98;102793.09;5066660;28;11673;-65
2022/12/17 23:51:00;;;;;;;;;47.50;42.50;;;;;-1.44;76.52;102791.31;5056700;28;11690;-66
2022/12/17 23:53:28;;;;;;;;;51.67;45.33;;;;;-1.38;76.99;102780.44;5053343;28;11725;-67
2022/12/17 23:55:55;;;;;;;;;55.67;49.00;;;;;-1.40;77.01;102772.59;5062267;28;8841;-66
2022/12/17 23:58:21;;;;;;;;;57.00;45.33;;;;;-1.47;76.83;102770.31;5062148;28;8845;-65
